sensor_id;sensor_type;location;lat;lon;timestamp;P1;durP1;ratioP1;P2;durP2;ratioP2
65691;SDS011;52411;52.716;6.696;2022-09-03T00:00:24;2.92;;;2.10;;
65691;SDS011;52411;52.716;6.696;2022-09-03T00:03:01;6.65;;;2.67;;
65691;SDS011;52411;52.716;6.696;2022-09-03T00:05:42;8.20;;;2.25;;
65691;SDS011;52411;52.716;6.696;2022-09-03T00:08:22;3.40;;;2.15;;
65691;SDS011;52411;52.716;6.696;2022-09-03T00:11:42;6.45;;;2.10;;
65691;SDS011;52411;52.716;6.696;2022-09-03T00:13:50;11.23;;;2.33;;
65691;SDS011;52411;52.716;6.696;2022-09-03T00:16:48;3.20;;;2.23;;
65691;SDS011;52411;52.716;6.696;2022-09-03T00:19:19;2.28;;;2.00;;
65691;SDS011;52411;52.716;6.696;2022-09-03T00:21:54;5.72;;;2.35;;
65691;SDS011;52411;52.716;6.696;2022-09-03T00:24:24;2.90;;;2.08;;
65691;SDS011;52411;52.716;6.696;2022-09-03T00:26:56;7.78;;;2.28;;
65691;SDS011;52411;52.716;6.696;2022-09-03T00:29:34;2.72;;;2.10;;
65691;SDS011;52411;52.716;6.696;2022-09-03T00:32:08;2.75;;;2.00;;
65691;SDS011;52411;52.716;6.696;2022-09-03T00:34:39;5.68;;;2.00;;
65691;SDS011;52411;52.716;6.696;2022-09-03T00:37:08;5.47;;;2.15;;
65691;SDS011;52411;52.716;6.696;2022-09-03T00:39:35;4.03;;;2.08;;
65691;SDS011;52411;52.716;6.696;2022-09-03T00:47:58;4.20;;;2.33;;
65691;SDS011;52411;52.716;6.696;2022-09-03T00:56:20;3.15;;;2.22;;
65691;SDS011;52411;52.716;6.696;2022-09-03T00:59:06;4.47;;;2.10;;
65691;SDS011;52411;52.716;6.696;2022-09-03T01:01:49;3.63;;;2.00;;
65691;SDS011;52411;52.716;6.696;2022-09-03T01:07:14;3.85;;;1.92;;
65691;SDS011;52411;52.716;6.696;2022-09-03T01:13:00;3.40;;;2.05;;
65691;SDS011;52411;52.716;6.696;2022-09-03T01:18:23;3.10;;;2.20;;
65691;SDS011;52411;52.716;6.696;2022-09-03T01:30:05;2.67;;;1.98;;
65691;SDS011;52411;52.716;6.696;2022-09-03T01:32:47;8.18;;;2.05;;
65691;SDS011;52411;52.716;6.696;2022-09-03T01:35:43;3.42;;;2.00;;
65691;SDS011;52411;52.716;6.696;2022-09-03T01:46:45;5.25;;;2.03;;
65691;SDS011;52411;52.716;6.696;2022-09-03T01:49:24;4.95;;;2.20;;
65691;SDS011;52411;52.716;6.696;2022-09-03T01:52:15;4.47;;;2.15;;
65691;SDS011;52411;52.716;6.696;2022-09-03T01:57:44;4.30;;;2.25;;
65691;SDS011;52411;52.716;6.696;2022-09-03T02:00:20;5.68;;;2.40;;
65691;SDS011;52411;52.716;6.696;2022-09-03T02:02:47;2.63;;;1.80;;
65691;SDS011;52411;52.716;6.696;2022-09-03T02:05:22;2.17;;;1.90;;
65691;SDS011;52411;52.716;6.696;2022-09-03T02:10:24;5.65;;;2.20;;
65691;SDS011;52411;52.716;6.696;2022-09-03T02:12:59;2.35;;;1.92;;
65691;SDS011;52411;52.716;6.696;2022-09-03T02:15:30;3.10;;;2.10;;
65691;SDS011;52411;52.716;6.696;2022-09-03T02:17:59;4.05;;;2.10;;
65691;SDS011;52411;52.716;6.696;2022-09-03T02:20:27;3.47;;;1.98;;
65691;SDS011;52411;52.716;6.696;2022-09-03T02:22:54;3.72;;;2.00;;
65691;SDS011;52411;52.716;6.696;2022-09-03T02:25:22;3.97;;;1.95;;
65691;SDS011;52411;52.716;6.696;2022-09-03T02:30:19;4.72;;;1.90;;
65691;SDS011;52411;52.716;6.696;2022-09-03T02:32:45;3.42;;;1.98;;
65691;SDS011;52411;52.716;6.696;2022-09-03T02:35:11;2.42;;;1.77;;
65691;SDS011;52411;52.716;6.696;2022-09-03T02:37:37;4.70;;;2.10;;
65691;SDS011;52411;52.716;6.696;2022-09-03T02:40:03;4.25;;;2.13;;
65691;SDS011;52411;52.716;6.696;2022-09-03T02:42:34;4.68;;;2.22;;
65691;SDS011;52411;52.716;6.696;2022-09-03T02:45:03;5.47;;;2.20;;
65691;SDS011;52411;52.716;6.696;2022-09-03T02:48:00;3.35;;;1.90;;
65691;SDS011;52411;52.716;6.696;2022-09-03T02:50:26;6.68;;;2.10;;
65691;SDS011;52411;52.716;6.696;2022-09-03T02:52:52;4.40;;;2.00;;
65691;SDS011;52411;52.716;6.696;2022-09-03T02:55:18;6.18;;;2.30;;
65691;SDS011;52411;52.716;6.696;2022-09-03T02:57:44;3.10;;;1.95;;
65691;SDS011;52411;52.716;6.696;2022-09-03T03:00:10;4.78;;;1.95;;
65691;SDS011;52411;52.716;6.696;2022-09-03T03:02:36;4.15;;;2.00;;
65691;SDS011;52411;52.716;6.696;2022-09-03T03:05:02;5.40;;;2.00;;
65691;SDS011;52411;52.716;6.696;2022-09-03T03:07:29;2.60;;;1.85;;
65691;SDS011;52411;52.716;6.696;2022-09-03T03:09:58;2.72;;;2.08;;
65691;SDS011;52411;52.716;6.696;2022-09-03T03:12:24;6.00;;;1.95;;
65691;SDS011;52411;52.716;6.696;2022-09-03T03:14:50;4.20;;;1.88;;
65691;SDS011;52411;52.716;6.696;2022-09-03T03:17:16;3.58;;;1.83;;
65691;SDS011;52411;52.716;6.696;2022-09-03T03:19:41;3.63;;;1.98;;
65691;SDS011;52411;52.716;6.696;2022-09-03T03:22:07;3.95;;;1.80;;
65691;SDS011;52411;52.716;6.696;2022-09-03T03:24:32;2.92;;;2.00;;
65691;SDS011;52411;52.716;6.696;2022-09-03T03:26:58;2.60;;;2.00;;
65691;SDS011;52411;52.716;6.696;2022-09-03T03:29:23;12.20;;;2.38;;
65691;SDS011;52411;52.716;6.696;2022-09-03T03:31:49;4.07;;;2.22;;
65691;SDS011;52411;52.716;6.696;2022-09-03T03:34:16;3.35;;;2.28;;
65691;SDS011;52411;52.716;6.696;2022-09-03T03:36:41;3.45;;;2.20;;
65691;SDS011;52411;52.716;6.696;2022-09-03T03:39:07;4.15;;;2.35;;
65691;SDS011;52411;52.716;6.696;2022-09-03T03:41:34;2.97;;;2.20;;
65691;SDS011;52411;52.716;6.696;2022-09-03T03:44:05;4.28;;;2.05;;
65691;SDS011;52411;52.716;6.696;2022-09-03T03:46:38;2.83;;;1.90;;
65691;SDS011;52411;52.716;6.696;2022-09-03T03:49:05;2.47;;;2.10;;
65691;SDS011;52411;52.716;6.696;2022-09-03T03:51:32;5.13;;;2.05;;
65691;SDS011;52411;52.716;6.696;2022-09-03T03:53:59;2.40;;;1.98;;
65691;SDS011;52411;52.716;6.696;2022-09-03T03:56:25;3.60;;;2.20;;
65691;SDS011;52411;52.716;6.696;2022-09-03T03:58:51;2.95;;;2.00;;
65691;SDS011;52411;52.716;6.696;2022-09-03T04:01:21;4.38;;;2.20;;
65691;SDS011;52411;52.716;6.696;2022-09-03T04:06:15;2.72;;;2.00;;
65691;SDS011;52411;52.716;6.696;2022-09-03T04:08:43;2.63;;;2.15;;
65691;SDS011;52411;52.716;6.696;2022-09-03T04:11:12;5.47;;;2.05;;
65691;SDS011;52411;52.716;6.696;2022-09-03T04:13:40;5.57;;;2.15;;
65691;SDS011;52411;52.716;6.696;2022-09-03T04:16:08;2.95;;;2.00;;
65691;SDS011;52411;52.716;6.696;2022-09-03T04:18:38;7.90;;;2.45;;
65691;SDS011;52411;52.716;6.696;2022-09-03T04:21:05;7.38;;;2.60;;
65691;SDS011;52411;52.716;6.696;2022-09-03T04:23:35;3.55;;;2.17;;
65691;SDS011;52411;52.716;6.696;2022-09-03T04:26:02;5.03;;;2.20;;
65691;SDS011;52411;52.716;6.696;2022-09-03T04:28:29;4.25;;;2.15;;
65691;SDS011;52411;52.716;6.696;2022-09-03T04:30:59;5.93;;;2.30;;
65691;SDS011;52411;52.716;6.696;2022-09-03T04:33:28;3.25;;;2.50;;
65691;SDS011;52411;52.716;6.696;2022-09-03T04:36:04;4.47;;;2.60;;
65691;SDS011;52411;52.716;6.696;2022-09-03T04:38:35;4.30;;;2.38;;
65691;SDS011;52411;52.716;6.696;2022-09-03T04:41:02;3.67;;;2.38;;
65691;SDS011;52411;52.716;6.696;2022-09-03T04:43:29;5.70;;;2.67;;
65691;SDS011;52411;52.716;6.696;2022-09-03T04:45:55;3.25;;;2.30;;
65691;SDS011;52411;52.716;6.696;2022-09-03T04:48:25;3.03;;;2.33;;
65691;SDS011;52411;52.716;6.696;2022-09-03T04:50:52;3.45;;;2.30;;
65691;SDS011;52411;52.716;6.696;2022-09-03T04:53:19;4.70;;;2.65;;
65691;SDS011;52411;52.716;6.696;2022-09-03T04:55:45;2.95;;;2.47;;
65691;SDS011;52411;52.716;6.696;2022-09-03T04:58:10;4.85;;;2.72;;
65691;SDS011;52411;52.716;6.696;2022-09-03T05:00:36;3.92;;;2.50;;
65691;SDS011;52411;52.716;6.696;2022-09-03T05:03:02;7.25;;;2.40;;
65691;SDS011;52411;52.716;6.696;2022-09-03T05:05:30;4.72;;;2.45;;
65691;SDS011;52411;52.716;6.696;2022-09-03T05:07:58;3.00;;;2.40;;
65691;SDS011;52411;52.716;6.696;2022-09-03T05:10:25;6.95;;;2.53;;
65691;SDS011;52411;52.716;6.696;2022-09-03T05:13:01;4.25;;;2.50;;
65691;SDS011;52411;52.716;6.696;2022-09-03T05:15:29;3.03;;;2.40;;
65691;SDS011;52411;52.716;6.696;2022-09-03T05:17:58;4.10;;;2.55;;
65691;SDS011;52411;52.716;6.696;2022-09-03T05:20:26;4.45;;;2.42;;
65691;SDS011;52411;52.716;6.696;2022-09-03T05:22:59;3.38;;;2.38;;
65691;SDS011;52411;52.716;6.696;2022-09-03T05:25:27;2.80;;;2.50;;
65691;SDS011;52411;52.716;6.696;2022-09-03T05:27:52;11.23;;;2.80;;
65691;SDS011;52411;52.716;6.696;2022-09-03T05:30:19;6.55;;;3.00;;
65691;SDS011;52411;52.716;6.696;2022-09-03T05:32:47;7.22;;;3.25;;
65691;SDS011;52411;52.716;6.696;2022-09-03T05:35:13;5.53;;;3.10;;
65691;SDS011;52411;52.716;6.696;2022-09-03T05:37:38;5.25;;;2.70;;
65691;SDS011;52411;52.716;6.696;2022-09-03T05:40:04;4.47;;;2.83;;
65691;SDS011;52411;52.716;6.696;2022-09-03T05:42:30;4.82;;;2.80;;
65691;SDS011;52411;52.716;6.696;2022-09-03T05:44:59;5.80;;;3.03;;
65691;SDS011;52411;52.716;6.696;2022-09-03T05:47:24;5.32;;;2.97;;
65691;SDS011;52411;52.716;6.696;2022-09-03T05:49:50;5.30;;;3.42;;
65691;SDS011;52411;52.716;6.696;2022-09-03T05:52:16;5.00;;;2.97;;
65691;SDS011;52411;52.716;6.696;2022-09-03T05:54:43;7.28;;;2.78;;
65691;SDS011;52411;52.716;6.696;2022-09-03T05:57:09;5.05;;;2.88;;
65691;SDS011;52411;52.716;6.696;2022-09-03T05:59:35;11.55;;;3.45;;
65691;SDS011;52411;52.716;6.696;2022-09-03T06:02:00;4.80;;;2.80;;
65691;SDS011;52411;52.716;6.696;2022-09-03T06:04:26;7.05;;;2.95;;
65691;SDS011;52411;52.716;6.696;2022-09-03T06:06:51;7.25;;;3.33;;
65691;SDS011;52411;52.716;6.696;2022-09-03T06:09:18;5.55;;;3.17;;
65691;SDS011;52411;52.716;6.696;2022-09-03T06:11:45;8.95;;;3.00;;
65691;SDS011;52411;52.716;6.696;2022-09-03T06:14:13;4.93;;;3.25;;
65691;SDS011;52411;52.716;6.696;2022-09-03T06:16:44;3.97;;;2.97;;
65691;SDS011;52411;52.716;6.696;2022-09-03T06:19:13;5.03;;;3.17;;
65691;SDS011;52411;52.716;6.696;2022-09-03T06:21:40;5.60;;;3.17;;
65691;SDS011;52411;52.716;6.696;2022-09-03T06:24:13;4.90;;;3.13;;
65691;SDS011;52411;52.716;6.696;2022-09-03T06:26:40;10.25;;;3.17;;
65691;SDS011;52411;52.716;6.696;2022-09-03T06:29:06;7.18;;;3.50;;
65691;SDS011;52411;52.716;6.696;2022-09-03T06:31:32;4.63;;;3.13;;
65691;SDS011;52411;52.716;6.696;2022-09-03T06:33:59;4.30;;;3.03;;
65691;SDS011;52411;52.716;6.696;2022-09-03T06:36:26;4.45;;;2.90;;
65691;SDS011;52411;52.716;6.696;2022-09-03T06:38:53;5.55;;;3.30;;
65691;SDS011;52411;52.716;6.696;2022-09-03T06:41:21;5.25;;;3.15;;
65691;SDS011;52411;52.716;6.696;2022-09-03T06:43:56;6.75;;;3.25;;
65691;SDS011;52411;52.716;6.696;2022-09-03T06:46:27;4.90;;;3.35;;
65691;SDS011;52411;52.716;6.696;2022-09-03T06:48:54;5.90;;;3.10;;
65691;SDS011;52411;52.716;6.696;2022-09-03T06:51:21;5.32;;;3.15;;
65691;SDS011;52411;52.716;6.696;2022-09-03T06:53:49;5.45;;;3.20;;
65691;SDS011;52411;52.716;6.696;2022-09-03T06:56:17;6.03;;;3.38;;
65691;SDS011;52411;52.716;6.696;2022-09-03T06:58:51;7.95;;;3.30;;
65691;SDS011;52411;52.716;6.696;2022-09-03T07:01:20;8.82;;;3.40;;
65691;SDS011;52411;52.716;6.696;2022-09-03T07:03:51;4.57;;;3.38;;
65691;SDS011;52411;52.716;6.696;2022-09-03T07:06:21;6.70;;;3.47;;
65691;SDS011;52411;52.716;6.696;2022-09-03T07:08:48;6.13;;;3.20;;
65691;SDS011;52411;52.716;6.696;2022-09-03T07:11:16;4.18;;;3.25;;
65691;SDS011;52411;52.716;6.696;2022-09-03T07:13:45;6.07;;;3.25;;
65691;SDS011;52411;52.716;6.696;2022-09-03T07:18:39;5.47;;;3.10;;
65691;SDS011;52411;52.716;6.696;2022-09-03T07:21:08;4.95;;;2.80;;
65691;SDS011;52411;52.716;6.696;2022-09-03T07:23:36;4.30;;;2.88;;
65691;SDS011;52411;52.716;6.696;2022-09-03T07:26:04;7.20;;;3.13;;
65691;SDS011;52411;52.716;6.696;2022-09-03T07:28:35;8.60;;;3.35;;
65691;SDS011;52411;52.716;6.696;2022-09-03T07:31:03;5.28;;;2.97;;
65691;SDS011;52411;52.716;6.696;2022-09-03T07:33:43;7.18;;;3.10;;
65691;SDS011;52411;52.716;6.696;2022-09-03T07:36:11;5.65;;;3.10;;
65691;SDS011;52411;52.716;6.696;2022-09-03T07:38:39;10.57;;;3.53;;
65691;SDS011;52411;52.716;6.696;2022-09-03T07:41:06;4.47;;;3.15;;
65691;SDS011;52411;52.716;6.696;2022-09-03T07:43:43;7.38;;;3.30;;
65691;SDS011;52411;52.716;6.696;2022-09-03T07:46:14;15.32;;;3.15;;
65691;SDS011;52411;52.716;6.696;2022-09-03T07:48:50;6.70;;;2.80;;
65691;SDS011;52411;52.716;6.696;2022-09-03T07:51:22;5.95;;;2.80;;
65691;SDS011;52411;52.716;6.696;2022-09-03T07:53:51;4.63;;;2.72;;
65691;SDS011;52411;52.716;6.696;2022-09-03T07:56:21;7.63;;;2.95;;
65691;SDS011;52411;52.716;6.696;2022-09-03T07:58:48;4.70;;;3.10;;
65691;SDS011;52411;52.716;6.696;2022-09-03T08:01:15;6.40;;;3.00;;
65691;SDS011;52411;52.716;6.696;2022-09-03T08:03:43;5.55;;;2.92;;
65691;SDS011;52411;52.716;6.696;2022-09-03T08:06:11;4.40;;;3.00;;
65691;SDS011;52411;52.716;6.696;2022-09-03T08:08:37;6.47;;;2.80;;
65691;SDS011;52411;52.716;6.696;2022-09-03T08:13:40;5.20;;;2.72;;
65691;SDS011;52411;52.716;6.696;2022-09-03T08:16:09;3.78;;;2.60;;
65691;SDS011;52411;52.716;6.696;2022-09-03T08:18:39;5.68;;;2.70;;
65691;SDS011;52411;52.716;6.696;2022-09-03T08:21:11;7.35;;;2.95;;
65691;SDS011;52411;52.716;6.696;2022-09-03T08:23:40;5.57;;;2.80;;
65691;SDS011;52411;52.716;6.696;2022-09-03T08:26:08;8.25;;;2.90;;
65691;SDS011;52411;52.716;6.696;2022-09-03T08:28:35;6.70;;;2.97;;
65691;SDS011;52411;52.716;6.696;2022-09-03T08:31:08;9.15;;;3.17;;
65691;SDS011;52411;52.716;6.696;2022-09-03T08:33:35;9.88;;;2.63;;
65691;SDS011;52411;52.716;6.696;2022-09-03T08:38:33;3.08;;;2.42;;
65691;SDS011;52411;52.716;6.696;2022-09-03T08:41:03;4.03;;;2.50;;
65691;SDS011;52411;52.716;6.696;2022-09-03T08:43:29;3.72;;;2.60;;
65691;SDS011;52411;52.716;6.696;2022-09-03T08:46:02;3.72;;;2.50;;
65691;SDS011;52411;52.716;6.696;2022-09-03T08:48:27;8.93;;;2.70;;
65691;SDS011;52411;52.716;6.696;2022-09-03T08:50:54;4.15;;;2.58;;
65691;SDS011;52411;52.716;6.696;2022-09-03T08:56:31;7.20;;;2.70;;
65691;SDS011;52411;52.716;6.696;2022-09-03T08:58:59;5.57;;;2.55;;
65691;SDS011;52411;52.716;6.696;2022-09-03T09:10:37;6.28;;;2.67;;
65691;SDS011;52411;52.716;6.696;2022-09-03T09:21:06;4.47;;;2.22;;
65691;SDS011;52411;52.716;6.696;2022-09-03T09:23:47;3.75;;;2.25;;
65691;SDS011;52411;52.716;6.696;2022-09-03T09:26:17;12.40;;;2.70;;
65691;SDS011;52411;52.716;6.696;2022-09-03T09:31:15;5.13;;;2.30;;
65691;SDS011;52411;52.716;6.696;2022-09-03T09:33:42;7.40;;;2.65;;
65691;SDS011;52411;52.716;6.696;2022-09-03T09:36:09;2.72;;;2.30;;
65691;SDS011;52411;52.716;6.696;2022-09-03T09:38:39;9.77;;;2.55;;
65691;SDS011;52411;52.716;6.696;2022-09-03T09:41:09;4.63;;;2.47;;
65691;SDS011;52411;52.716;6.696;2022-09-03T09:43:40;10.80;;;2.90;;
65691;SDS011;52411;52.716;6.696;2022-09-03T09:46:14;6.10;;;2.60;;
65691;SDS011;52411;52.716;6.696;2022-09-03T09:48:52;4.45;;;2.30;;
65691;SDS011;52411;52.716;6.696;2022-09-03T09:51:21;4.50;;;2.17;;
65691;SDS011;52411;52.716;6.696;2022-09-03T09:54:13;13.35;;;2.42;;
65691;SDS011;52411;52.716;6.696;2022-09-03T09:56:44;6.35;;;2.33;;
65691;SDS011;52411;52.716;6.696;2022-09-03T09:59:12;2.95;;;2.13;;
65691;SDS011;52411;52.716;6.696;2022-09-03T10:01:42;7.25;;;2.45;;
65691;SDS011;52411;52.716;6.696;2022-09-03T10:06:52;7.47;;;2.40;;
65691;SDS011;52411;52.716;6.696;2022-09-03T10:09:29;4.20;;;2.13;;
65691;SDS011;52411;52.716;6.696;2022-09-03T10:14:56;5.70;;;2.50;;
65691;SDS011;52411;52.716;6.696;2022-09-03T10:23:12;6.95;;;2.47;;
65691;SDS011;52411;52.716;6.696;2022-09-03T10:25:45;5.30;;;2.35;;
65691;SDS011;52411;52.716;6.696;2022-09-03T10:28:25;2.72;;;2.10;;
65691;SDS011;52411;52.716;6.696;2022-09-03T10:33:37;6.72;;;2.25;;
65691;SDS011;52411;52.716;6.696;2022-09-03T10:36:23;6.43;;;2.20;;
65691;SDS011;52411;52.716;6.696;2022-09-03T10:38:58;7.30;;;2.40;;
65691;SDS011;52411;52.716;6.696;2022-09-03T10:44:28;6.95;;;2.00;;
65691;SDS011;52411;52.716;6.696;2022-09-03T10:47:18;5.70;;;2.40;;
65691;SDS011;52411;52.716;6.696;2022-09-03T11:00:51;4.78;;;2.30;;
65691;SDS011;52411;52.716;6.696;2022-09-03T11:03:42;8.25;;;2.20;;
65691;SDS011;52411;52.716;6.696;2022-09-03T11:06:23;5.05;;;2.55;;
65691;SDS011;52411;52.716;6.696;2022-09-03T11:11:53;2.83;;;2.00;;
65691;SDS011;52411;52.716;6.696;2022-09-03T11:14:46;7.07;;;2.08;;
65691;SDS011;52411;52.716;6.696;2022-09-03T11:17:19;2.80;;;1.92;;
65691;SDS011;52411;52.716;6.696;2022-09-03T11:20:25;4.72;;;2.00;;
65691;SDS011;52411;52.716;6.696;2022-09-03T11:22:45;6.45;;;2.20;;
65691;SDS011;52411;52.716;6.696;2022-09-03T11:25:14;3.65;;;2.10;;
65691;SDS011;52411;52.716;6.696;2022-09-03T11:27:48;5.50;;;1.95;;
65691;SDS011;52411;52.716;6.696;2022-09-03T11:31:05;3.63;;;2.00;;
65691;SDS011;52411;52.716;6.696;2022-09-03T11:33:11;4.40;;;2.20;;
65691;SDS011;52411;52.716;6.696;2022-09-03T11:35:39;5.38;;;2.00;;
65691;SDS011;52411;52.716;6.696;2022-09-03T11:40:56;5.97;;;2.10;;
65691;SDS011;52411;52.716;6.696;2022-09-03T11:43:25;5.55;;;2.00;;
65691;SDS011;52411;52.716;6.696;2022-09-03T11:49:24;5.80;;;2.10;;
65691;SDS011;52411;52.716;6.696;2022-09-03T11:51:55;2.42;;;1.90;;
65691;SDS011;52411;52.716;6.696;2022-09-03T11:54:24;5.63;;;2.40;;
65691;SDS011;52411;52.716;6.696;2022-09-03T11:57:02;2.85;;;1.90;;
65691;SDS011;52411;52.716;6.696;2022-09-03T11:59:45;6.82;;;2.00;;
65691;SDS011;52411;52.716;6.696;2022-09-03T12:02:24;4.80;;;2.00;;
65691;SDS011;52411;52.716;6.696;2022-09-03T12:05:03;4.45;;;1.80;;
65691;SDS011;52411;52.716;6.696;2022-09-03T12:18:28;4.00;;;2.03;;
65691;SDS011;52411;52.716;6.696;2022-09-03T12:23:42;3.42;;;1.80;;
65691;SDS011;52411;52.716;6.696;2022-09-03T12:26:13;3.88;;;2.00;;
65691;SDS011;52411;52.716;6.696;2022-09-03T12:28:40;6.22;;;2.05;;
65691;SDS011;52411;52.716;6.696;2022-09-03T12:31:09;5.72;;;2.35;;
65691;SDS011;52411;52.716;6.696;2022-09-03T12:33:48;10.52;;;2.25;;
65691;SDS011;52411;52.716;6.696;2022-09-03T12:36:17;3.30;;;2.10;;
65691;SDS011;52411;52.716;6.696;2022-09-03T12:38:44;4.13;;;2.00;;
65691;SDS011;52411;52.716;6.696;2022-09-03T12:41:25;8.18;;;2.58;;
65691;SDS011;52411;52.716;6.696;2022-09-03T12:43:58;4.50;;;2.10;;
65691;SDS011;52411;52.716;6.696;2022-09-03T12:46:34;2.78;;;1.90;;
65691;SDS011;52411;52.716;6.696;2022-09-03T12:49:00;3.45;;;1.73;;
65691;SDS011;52411;52.716;6.696;2022-09-03T12:51:32;7.28;;;2.20;;
65691;SDS011;52411;52.716;6.696;2022-09-03T12:54:00;6.43;;;2.22;;
65691;SDS011;52411;52.716;6.696;2022-09-03T12:56:29;6.63;;;2.10;;
65691;SDS011;52411;52.716;6.696;2022-09-03T12:59:00;6.18;;;2.17;;
65691;SDS011;52411;52.716;6.696;2022-09-03T13:01:32;7.20;;;2.00;;
65691;SDS011;52411;52.716;6.696;2022-09-03T13:06:39;5.78;;;2.08;;
65691;SDS011;52411;52.716;6.696;2022-09-03T13:11:54;5.50;;;2.00;;
65691;SDS011;52411;52.716;6.696;2022-09-03T13:14:23;4.70;;;1.90;;
65691;SDS011;52411;52.716;6.696;2022-09-03T13:16:54;17.77;;;2.17;;
65691;SDS011;52411;52.716;6.696;2022-09-03T13:25:07;3.45;;;1.95;;
65691;SDS011;52411;52.716;6.696;2022-09-03T13:30:28;3.70;;;1.92;;
65691;SDS011;52411;52.716;6.696;2022-09-03T13:33:31;5.93;;;2.10;;
65691;SDS011;52411;52.716;6.696;2022-09-03T13:36:20;2.65;;;1.90;;
65691;SDS011;52411;52.716;6.696;2022-09-03T13:38:58;5.50;;;2.30;;
65691;SDS011;52411;52.716;6.696;2022-09-03T13:46:45;3.10;;;1.80;;
65691;SDS011;52411;52.716;6.696;2022-09-03T13:52:37;4.43;;;1.90;;
65691;SDS011;52411;52.716;6.696;2022-09-03T13:55:08;5.82;;;2.05;;
65691;SDS011;52411;52.716;6.696;2022-09-03T14:00:10;3.45;;;1.90;;
65691;SDS011;52411;52.716;6.696;2022-09-03T14:02:44;7.50;;;2.00;;
65691;SDS011;52411;52.716;6.696;2022-09-03T14:18:53;5.05;;;1.92;;
65691;SDS011;52411;52.716;6.696;2022-09-03T14:21:43;4.50;;;2.28;;
65691;SDS011;52411;52.716;6.696;2022-09-03T14:26:56;4.00;;;2.00;;
65691;SDS011;52411;52.716;6.696;2022-09-03T14:29:27;2.50;;;1.90;;
65691;SDS011;52411;52.716;6.696;2022-09-03T14:34:55;3.10;;;2.10;;
65691;SDS011;52411;52.716;6.696;2022-09-03T14:40:08;4.85;;;2.22;;
65691;SDS011;52411;52.716;6.696;2022-09-03T14:57:06;2.17;;;1.80;;
65691;SDS011;52411;52.716;6.696;2022-09-03T14:59:52;6.28;;;2.13;;
65691;SDS011;52411;52.716;6.696;2022-09-03T15:07:55;5.97;;;2.50;;
65691;SDS011;52411;52.716;6.696;2022-09-03T15:10:31;6.32;;;2.28;;
65691;SDS011;52411;52.716;6.696;2022-09-03T15:29:50;8.38;;;2.53;;
65691;SDS011;52411;52.716;6.696;2022-09-03T15:32:40;12.02;;;2.90;;
65691;SDS011;52411;52.716;6.696;2022-09-03T15:43:14;6.57;;;2.20;;
65691;SDS011;52411;52.716;6.696;2022-09-03T15:45:56;4.95;;;1.73;;
65691;SDS011;52411;52.716;6.696;2022-09-03T15:51:24;2.35;;;1.90;;
65691;SDS011;52411;52.716;6.696;2022-09-03T15:56:33;4.32;;;1.90;;
65691;SDS011;52411;52.716;6.696;2022-09-03T15:59:20;2.55;;;2.00;;
65691;SDS011;52411;52.716;6.696;2022-09-03T16:07:32;7.25;;;2.08;;
65691;SDS011;52411;52.716;6.696;2022-09-03T16:15:09;3.63;;;2.10;;
65691;SDS011;52411;52.716;6.696;2022-09-03T16:20:42;3.78;;;2.00;;
65691;SDS011;52411;52.716;6.696;2022-09-03T16:23:20;6.35;;;2.00;;
65691;SDS011;52411;52.716;6.696;2022-09-03T16:25:52;7.95;;;2.03;;
65691;SDS011;52411;52.716;6.696;2022-09-03T16:36:35;4.88;;;2.00;;
65691;SDS011;52411;52.716;6.696;2022-09-03T16:39:52;6.75;;;2.17;;
65691;SDS011;52411;52.716;6.696;2022-09-03T16:58:16;3.95;;;2.10;;
65691;SDS011;52411;52.716;6.696;2022-09-03T17:14:59;4.35;;;2.10;;
65691;SDS011;52411;52.716;6.696;2022-09-03T17:17:46;3.92;;;2.05;;
65691;SDS011;52411;52.716;6.696;2022-09-03T17:35:29;4.55;;;2.00;;
65691;SDS011;52411;52.716;6.696;2022-09-03T17:43:24;3.15;;;2.13;;
65691;SDS011;52411;52.716;6.696;2022-09-03T17:46:40;7.70;;;2.40;;
65691;SDS011;52411;52.716;6.696;2022-09-03T17:49:33;10.00;;;2.50;;
65691;SDS011;52411;52.716;6.696;2022-09-03T17:54:59;7.20;;;2.33;;
65691;SDS011;52411;52.716;6.696;2022-09-03T17:57:47;6.47;;;2.53;;
65691;SDS011;52411;52.716;6.696;2022-09-03T18:00:22;9.35;;;2.58;;
65691;SDS011;52411;52.716;6.696;2022-09-03T18:05:29;10.98;;;2.97;;
65691;SDS011;52411;52.716;6.696;2022-09-03T18:08:25;5.95;;;3.10;;
65691;SDS011;52411;52.716;6.696;2022-09-03T18:11:13;5.95;;;2.50;;
65691;SDS011;52411;52.716;6.696;2022-09-03T18:14:19;7.40;;;2.70;;
65691;SDS011;52411;52.716;6.696;2022-09-03T18:19:47;7.18;;;2.70;;
65691;SDS011;52411;52.716;6.696;2022-09-03T18:23:17;4.80;;;2.70;;
65691;SDS011;52411;52.716;6.696;2022-09-03T18:25:53;4.07;;;2.78;;
65691;SDS011;52411;52.716;6.696;2022-09-03T18:28:44;9.45;;;2.65;;
65691;SDS011;52411;52.716;6.696;2022-09-03T18:31:33;5.97;;;2.70;;
65691;SDS011;52411;52.716;6.696;2022-09-03T18:34:18;6.55;;;3.00;;
65691;SDS011;52411;52.716;6.696;2022-09-03T18:37:08;9.13;;;2.80;;
65691;SDS011;52411;52.716;6.696;2022-09-03T18:39:52;3.88;;;2.60;;
65691;SDS011;52411;52.716;6.696;2022-09-03T18:42:46;4.85;;;2.58;;
65691;SDS011;52411;52.716;6.696;2022-09-03T18:49:01;5.57;;;2.58;;
65691;SDS011;52411;52.716;6.696;2022-09-03T19:01:25;6.40;;;2.78;;
65691;SDS011;52411;52.716;6.696;2022-09-03T19:04:31;8.98;;;2.80;;
65691;SDS011;52411;52.716;6.696;2022-09-03T19:11:26;6.25;;;2.58;;
65691;SDS011;52411;52.716;6.696;2022-09-03T19:14:06;4.80;;;2.45;;
65691;SDS011;52411;52.716;6.696;2022-09-03T19:17:05;3.05;;;2.70;;
65691;SDS011;52411;52.716;6.696;2022-09-03T19:22:53;8.25;;;2.90;;
65691;SDS011;52411;52.716;6.696;2022-09-03T19:25:38;7.32;;;2.92;;
65691;SDS011;52411;52.716;6.696;2022-09-03T19:28:28;5.32;;;2.70;;
65691;SDS011;52411;52.716;6.696;2022-09-03T19:37:16;5.38;;;2.97;;
65691;SDS011;52411;52.716;6.696;2022-09-03T19:43:27;6.40;;;2.90;;
65691;SDS011;52411;52.716;6.696;2022-09-03T19:52:38;6.00;;;2.88;;
65691;SDS011;52411;52.716;6.696;2022-09-03T19:55:37;6.55;;;2.95;;
65691;SDS011;52411;52.716;6.696;2022-09-03T19:58:26;8.52;;;2.80;;
65691;SDS011;52411;52.716;6.696;2022-09-03T20:01:14;4.60;;;3.15;;
65691;SDS011;52411;52.716;6.696;2022-09-03T20:04:02;6.65;;;2.60;;
65691;SDS011;52411;52.716;6.696;2022-09-03T20:06:56;4.53;;;2.60;;
65691;SDS011;52411;52.716;6.696;2022-09-03T20:09:43;3.47;;;2.58;;
65691;SDS011;52411;52.716;6.696;2022-09-03T20:12:30;9.90;;;2.95;;
65691;SDS011;52411;52.716;6.696;2022-09-03T20:15:01;6.22;;;2.60;;
65691;SDS011;52411;52.716;6.696;2022-09-03T20:23:02;7.95;;;2.92;;
65691;SDS011;52411;52.716;6.696;2022-09-03T20:58:08;6.63;;;3.00;;
65691;SDS011;52411;52.716;6.696;2022-09-03T21:01:03;3.75;;;2.70;;
65691;SDS011;52411;52.716;6.696;2022-09-03T21:06:10;5.95;;;2.70;;
65691;SDS011;52411;52.716;6.696;2022-09-03T21:11:31;6.75;;;2.75;;
65691;SDS011;52411;52.716;6.696;2022-09-03T21:16:58;6.15;;;3.00;;
65691;SDS011;52411;52.716;6.696;2022-09-03T21:19:48;5.53;;;3.17;;
65691;SDS011;52411;52.716;6.696;2022-09-03T21:25:26;6.55;;;3.88;;
65691;SDS011;52411;52.716;6.696;2022-09-03T21:28:16;9.23;;;4.45;;
65691;SDS011;52411;52.716;6.696;2022-09-03T21:30:49;13.18;;;4.30;;
65691;SDS011;52411;52.716;6.696;2022-09-03T21:33:29;8.65;;;3.88;;
65691;SDS011;52411;52.716;6.696;2022-09-03T21:36:13;8.75;;;3.47;;
65691;SDS011;52411;52.716;6.696;2022-09-03T21:38:43;5.38;;;3.50;;
65691;SDS011;52411;52.716;6.696;2022-09-03T21:41:14;6.78;;;3.20;;
65691;SDS011;52411;52.716;6.696;2022-09-03T21:43:50;6.65;;;3.10;;
65691;SDS011;52411;52.716;6.696;2022-09-03T21:46:22;5.85;;;2.72;;
65691;SDS011;52411;52.716;6.696;2022-09-03T21:48:57;4.68;;;2.83;;
65691;SDS011;52411;52.716;6.696;2022-09-03T21:51:34;6.07;;;2.83;;
65691;SDS011;52411;52.716;6.696;2022-09-03T21:54:17;5.28;;;2.70;;
65691;SDS011;52411;52.716;6.696;2022-09-03T21:57:01;4.55;;;2.70;;
65691;SDS011;52411;52.716;6.696;2022-09-03T22:02:33;5.88;;;3.08;;